Time,TemperatureF,DewpointF,PressureIn,WindDirection,WindDirectionDegrees,WindSpeedMPH,WindSpeedGustMPH,Humidity,HourlyPrecipIn,Conditions,Clouds,dailyrainin,SoftwareType,DateUTC
2013-02-16 00:02:00,46.9,38.1,29.78,NNE,22,0.0,0.0,71,0.00,,,0.00,WUHU21623XXSP,2013-02-16 06:02:00,
2013-02-16 00:07:00,46.9,38.1,29.78,NNE,22,0.0,0.0,71,0.00,,,0.00,WUHU21623XXSP,2013-02-16 06:07:00,
2013-02-16 00:12:00,46.8,38.0,29.78,NNE,22,0.0,0.0,71,0.00,,,0.00,WUHU21623XXSP,2013-02-16 06:12:00,
2013-02-16 00:17:00,46.8,38.0,29.78,NNE,22,0.0,0.0,71,0.00,,,0.00,WUHU21623XXSP,2013-02-16 06:17:00,
2013-02-16 00:22:00,46.8,38.0,29.78,NE,45,0.0,0.0,71,0.00,,,0.00,WUHU21623XXSP,2013-02-16 06:22:00,
2013-02-16 00:27:00,46.6,37.8,29.78,NW,315,0.0,0.0,71,0.00,,,0.00,WUHU21623XXSP,2013-02-16 06:27:00,
2013-02-16 00:32:00,46.6,37.4,29.77,NNE,22,0.0,0.0,70,0.00,,,0.00,WUHU21623XXSP,2013-02-16 06:32:00,
2013-02-16 00:37:00,46.2,37.0,29.77,NW,315,2.2,2.2,70,0.00,,,0.00,WUHU21623XXSP,2013-02-16 06:37:00,
2013-02-16 00:42:00,46.0,36.9,29.77,WNW,292,2.2,2.2,70,0.00,,,0.00,WUHU21623XXSP,2013-02-16 06:42:00,
2013-02-16 00:47:00,45.9,36.8,29.77,East,90,6.7,6.7,70,0.00,,,0.00,WUHU21623XXSP,2013-02-16 06:47:00,
2013-02-16 00:52:00,45.7,36.6,29.77,NNE,22,0.0,6.7,70,0.00,,,0.00,WUHU21623XXSP,2013-02-16 06:52:00,
2013-02-16 00:57:00,45.3,36.5,29.76,North,0,0.0,0.0,71,0.00,,,0.00,WUHU21623XXSP,2013-02-16 06:57:00,
2013-02-16 01:02:00,45.1,36.3,29.77,East,90,0.0,3.8,71,0.00,,,0.00,WUHU21623XXSP,2013-02-16 07:02:00,
2013-02-16 01:07:00,45.0,36.6,29.77,ESE,112,0.0,3.8,72,0.00,,,0.00,WUHU21623XXSP,2013-02-16 07:07:00,
2013-02-16 01:12:00,44.4,36.0,29.78,NE,45,2.0,2.0,72,0.00,,,0.00,WUHU21623XXSP,2013-02-16 07:12:00,
2013-02-16 01:17:00,44.2,35.8,29.78,NW,315,2.0,2.0,72,0.00,,,0.00,WUHU21623XXSP,2013-02-16 07:17:00,
2013-02-16 01:22:00,44.2,36.2,29.78,East,90,0.0,2.0,73,0.00,,,0.00,WUHU21623XXSP,2013-02-16 07:22:00,
2013-02-16 01:27:00,43.7,35.7,29.78,NNE,22,0.0,0.0,73,0.00,,,0.00,WUHU21623XXSP,2013-02-16 07:27:00,
2013-02-16 01:32:00,43.5,35.5,29.78,ENE,67,0.0,0.0,73,0.00,,,0.00,WUHU21623XXSP,2013-02-16 07:32:00,
2013-02-16 01:37:00,43.5,35.8,29.77,ENE,67,0.0,0.0,74,0.00,,,0.00,WUHU21623XXSP,2013-02-16 07:37:00,
2013-02-16 01:42:00,43.2,35.5,29.77,ENE,67,0.0,0.0,74,0.00,,,0.00,WUHU21623XXSP,2013-02-16 07:42:00,
2013-02-16 01:47:00,43.2,35.5,29.76,ENE,67,0.0,0.0,74,0.00,,,0.00,WUHU21623XXSP,2013-02-16 07:47:00,
2013-02-16 01:52:00,43.0,35.3,29.76,North,0,0.0,0.0,74,0.00,,,0.00,WUHU21623XXSP,2013-02-16 07:52:00,
2013-02-16 01:57:00,42.6,34.6,29.76,ENE,67,0.0,0.0,73,0.00,,,0.00,WUHU21623XXSP,2013-02-16 07:57:00,
2013-02-16 02:02:00,42.4,34.4,29.76,ENE,67,0.0,0.0,73,0.00,,,0.00,WUHU21623XXSP,2013-02-16 08:02:00,
2013-02-16 02:07:00,42.4,34.4,29.77,ENE,67,0.0,0.0,73,0.00,,,0.00,WUHU21623XXSP,2013-02-16 08:07:00,
2013-02-16 02:12:00,42.3,34.3,29.78,ENE,67,0.0,0.0,73,0.00,,,0.00,WUHU21623XXSP,2013-02-16 08:12:00,
2013-02-16 02:17:00,42.1,34.1,29.78,ENE,67,0.0,0.0,73,0.00,,,0.00,WUHU21623XXSP,2013-02-16 08:17:00,
2013-02-16 02:22:00,42.1,34.1,29.78,East,90,0.0,0.0,73,0.00,,,0.00,WUHU21623XXSP,2013-02-16 08:22:00,
2013-02-16 02:27:00,41.9,33.9,29.77,ENE,67,0.0,0.0,73,0.00,,,0.00,WUHU21623XXSP,2013-02-16 08:27:00,
2013-02-16 02:32:00,41.9,33.9,29.77,ENE,67,0.0,0.0,73,0.00,,,0.00,WUHU21623XXSP,2013-02-16 08:32:00,
2013-02-16 02:37:00,41.9,33.9,29.77,ENE,67,2.2,2.2,73,0.00,,,0.00,WUHU21623XXSP,2013-02-16 08:37:00,
2013-02-16 02:42:00,41.7,33.4,29.77,ENE,67,0.0,2.2,72,0.00,,,0.00,WUHU21623XXSP,2013-02-16 08:42:00,
2013-02-16 02:47:00,41.5,33.2,29.77,East,90,6.0,6.0,72,0.00,,,0.00,WUHU21623XXSP,2013-02-16 08:47:00,
2013-02-16 02:52:00,41.5,33.6,29.77,ENE,67,0.0,6.0,73,0.00,,,0.00,WUHU21623XXSP,2013-02-16 08:52:00,
2013-02-16 02:57:00,41.5,33.6,29.78,ENE,67,2.0,2.0,73,0.00,,,0.00,WUHU21623XXSP,2013-02-16 08:57:00,
2013-02-16 03:02:00,41.5,33.6,29.78,WSW,247,0.0,6.0,73,0.00,,,0.00,WUHU21623XXSP,2013-02-16 09:02:00,
2013-02-16 03:07:00,41.4,33.1,29.78,ENE,67,0.0,6.0,72,0.00,,,0.00,WUHU21623XXSP,2013-02-16 09:07:00,
2013-02-16 03:12:00,41.4,33.1,29.78,NE,45,0.0,0.0,72,0.00,,,0.00,WUHU21623XXSP,2013-02-16 09:12:00,
2013-02-16 03:17:00,41.2,32.9,29.78,NE,45,0.0,0.0,72,0.00,,,0.00,WUHU21623XXSP,2013-02-16 09:17:00,
2013-02-16 03:22:00,41.2,33.3,29.78,ENE,67,0.0,0.0,73,0.00,,,0.00,WUHU21623XXSP,2013-02-16 09:22:00,
2013-02-16 03:27:00,41.2,33.3,29.78,NNE,22,0.0,0.0,73,0.00,,,0.00,WUHU21623XXSP,2013-02-16 09:27:00,
2013-02-16 03:32:00,41.0,33.1,29.78,East,90,0.0,0.0,73,0.00,,,0.00,WUHU21623XXSP,2013-02-16 09:32:00,
2013-02-16 03:37:00,41.0,33.1,29.78,East,90,0.0,0.0,73,0.00,,,0.00,WUHU21623XXSP,2013-02-16 09:37:00,
2013-02-16 03:42:00,41.0,33.1,29.79,NW,315,0.0,0.0,73,0.00,,,0.00,WUHU21623XXSP,2013-02-16 09:42:00,
2013-02-16 03:47:00,40.8,32.9,29.79,NW,315,7.2,7.2,73,0.00,,,0.00,WUHU21623XXSP,2013-02-16 09:47:00,
2013-02-16 03:52:00,40.8,32.9,29.79,NE,45,3.8,7.2,73,0.00,,,0.00,WUHU21623XXSP,2013-02-16 09:52:00,
2013-02-16 03:57:00,40.6,32.3,29.79,ESE,112,0.0,3.8,72,0.00,,,0.00,WUHU21623XXSP,2013-02-16 09:57:00,
2013-02-16 04:02:00,40.6,32.3,29.78,ENE,67,0.0,0.0,72,0.00,,,0.00,WUHU21623XXSP,2013-02-16 10:02:00,
2013-02-16 04:07:00,40.3,32.1,29.78,ENE,67,0.0,0.0,72,0.00,,,0.00,WUHU21623XXSP,2013-02-16 10:07:00,
2013-02-16 04:12:00,40.3,32.1,29.78,ENE,67,0.0,0.0,72,0.00,,,0.00,WUHU21623XXSP,2013-02-16 10:12:00,
2013-02-16 04:17:00,40.1,31.9,29.78,NNE,22,0.0,0.0,72,0.00,,,0.00,WUHU21623XXSP,2013-02-16 10:17:00,
2013-02-16 04:22:00,40.1,31.9,29.78,ENE,67,0.0,0.0,72,0.00,,,0.00,WUHU21623XXSP,2013-02-16 10:22:00,
2013-02-16 04:27:00,40.1,31.9,29.78,ENE,67,0.0,0.0,72,0.00,,,0.00,WUHU21623XXSP,2013-02-16 10:27:00,
2013-02-16 04:32:00,39.9,31.7,29.77,ENE,67,0.0,0.0,72,0.00,,,0.00,WUHU21623XXSP,2013-02-16 10:32:00,
2013-02-16 04:37:00,39.9,31.7,29.77,ENE,67,0.0,0.0,72,0.00,,,0.00,WUHU21623XXSP,2013-02-16 10:37:00,
2013-02-16 04:42:00,39.7,31.5,29.77,ENE,67,0.0,0.0,72,0.00,,,0.00,WUHU21623XXSP,2013-02-16 10:42:00,
2013-02-16 04:47:00,39.7,31.5,29.78,ENE,67,0.0,0.0,72,0.00,,,0.00,WUHU21623XXSP,2013-02-16 10:47:00,
2013-02-16 04:52:00,39.6,31.7,29.78,ENE,67,0.0,0.0,73,0.00,,,0.00,WUHU21623XXSP,2013-02-16 10:52:00,
2013-02-16 04:57:00,39.6,31.7,29.78,ENE,67,0.0,0.0,73,0.00,,,0.00,WUHU21623XXSP,2013-02-16 10:57:00,
2013-02-16 05:02:00,39.4,31.5,29.78,ENE,67,0.0,0.0,73,0.00,,,0.00,WUHU21623XXSP,2013-02-16 11:02:00,
2013-02-16 05:07:00,39.4,31.9,29.79,ENE,67,0.0,0.0,74,0.00,,,0.00,WUHU21623XXSP,2013-02-16 11:07:00,
2013-02-16 05:12:00,39.4,31.9,29.79,ENE,67,0.0,0.0,74,0.00,,,0.00,WUHU21623XXSP,2013-02-16 11:12:00,
2013-02-16 05:17:00,39.4,32.2,29.79,ENE,67,0.0,0.0,75,0.00,,,0.00,WUHU21623XXSP,2013-02-16 11:17:00,
2013-02-16 05:22:00,39.0,31.8,29.80,NW,315,0.0,0.0,75,0.00,,,0.00,WUHU21623XXSP,2013-02-16 11:22:00,
2013-02-16 05:27:00,39.0,31.5,29.80,ESE,112,0.0,0.0,74,0.00,,,0.00,WUHU21623XXSP,2013-02-16 11:27:00,
2013-02-16 05:32:00,39.0,31.1,29.80,West,270,0.0,0.0,73,0.00,,,0.00,WUHU21623XXSP,2013-02-16 11:32:00,
2013-02-16 05:37:00,38.8,30.6,29.80,ESE,112,4.0,4.0,72,0.00,,,0.00,WUHU21623XXSP,2013-02-16 11:37:00,
2013-02-16 05:42:00,38.7,30.2,29.80,NW,315,1.6,4.0,71,0.00,,,0.00,WUHU21623XXSP,2013-02-16 11:42:00,
2013-02-16 05:47:00,38.5,30.0,29.80,NW,315,0.0,1.6,71,0.00,,,0.00,WUHU21623XXSP,2013-02-16 11:47:00,
2013-02-16 05:52:00,38.3,29.4,29.80,ESE,112,0.0,0.0,70,0.00,,,0.00,WUHU21623XXSP,2013-02-16 11:52:00,
2013-02-16 05:57:00,37.9,28.7,29.81,NW,315,0.0,0.0,69,0.00,,,0.00,WUHU21623XXSP,2013-02-16 11:57:00,
2013-02-16 06:02:00,37.9,28.7,29.81,WSW,247,0.0,0.0,69,0.00,,,0.00,WUHU21623XXSP,2013-02-16 12:02:00,
2013-02-16 06:07:00,37.8,28.6,29.80,East,90,0.0,0.0,69,0.00,,,0.00,WUHU21623XXSP,2013-02-16 12:07:00,
2013-02-16 06:12:00,37.6,28.4,29.81,North,0,0.0,0.0,69,0.00,,,0.00,WUHU21623XXSP,2013-02-16 12:12:00,
2013-02-16 06:17:00,37.4,27.9,29.81,ENE,67,3.8,3.8,68,0.00,,,0.00,WUHU21623XXSP,2013-02-16 12:17:00,
2013-02-16 06:22:00,37.0,27.1,29.81,NNW,337,0.0,5.6,67,0.00,,,0.00,WUHU21623XXSP,2013-02-16 12:22:00,
2013-02-16 06:27:00,36.7,26.8,29.81,West,270,7.8,7.8,67,0.00,,,0.00,WUHU21623XXSP,2013-02-16 12:27:00,
2013-02-16 06:32:00,36.5,26.7,29.82,ESE,112,4.0,7.8,67,0.00,,,0.00,WUHU21623XXSP,2013-02-16 12:32:00,
2013-02-16 06:37:00,36.3,26.5,29.82,ENE,67,0.0,7.8,67,0.00,,,0.00,WUHU21623XXSP,2013-02-16 12:37:00,
2013-02-16 06:42:00,36.3,26.5,29.82,NW,315,0.0,4.0,67,0.00,,,0.00,WUHU21623XXSP,2013-02-16 12:42:00,
2013-02-16 06:47:00,36.1,26.6,29.82,NNW,337,0.0,0.0,68,0.00,,,0.00,WUHU21623XXSP,2013-02-16 12:47:00,
2013-02-16 06:52:00,35.8,26.7,29.82,NNW,337,0.0,0.0,69,0.00,,,0.00,WUHU21623XXSP,2013-02-16 12:52:00,
2013-02-16 06:57:00,35.8,26.7,29.82,NW,315,0.0,0.0,69,0.00,,,0.00,WUHU21623XXSP,2013-02-16 12:57:00,
2013-02-16 07:02:00,35.4,26.3,29.82,NNW,337,0.0,0.0,69,0.00,,,0.00,WUHU21623XXSP,2013-02-16 13:02:00,
2013-02-16 07:07:00,35.4,26.3,29.83,NNW,337,0.0,0.0,69,0.00,,,0.00,WUHU21623XXSP,2013-02-16 13:07:00,
2013-02-16 07:12:00,35.4,26.3,29.82,NNW,337,0.0,0.0,69,0.00,,,0.00,WUHU21623XXSP,2013-02-16 13:12:00,
2013-02-16 07:17:00,35.2,26.1,29.83,NW,315,0.0,0.0,69,0.00,,,0.00,WUHU21623XXSP,2013-02-16 13:17:00,
2013-02-16 07:22:00,35.2,26.1,29.83,NW,315,6.5,6.5,69,0.00,,,0.00,WUHU21623XXSP,2013-02-16 13:22:00,
2013-02-16 07:27:00,35.4,26.3,29.83,NW,315,0.0,6.5,69,0.00,,,0.00,WUHU21623XXSP,2013-02-16 13:27:00,
2013-02-16 07:32:00,35.8,26.7,29.83,North,0,0.0,0.0,69,0.00,,,0.00,WUHU21623XXSP,2013-02-16 13:32:00,
2013-02-16 07:37:00,36.3,26.8,29.83,North,0,0.0,0.0,68,0.00,,,0.00,WUHU21623XXSP,2013-02-16 13:37:00,
2013-02-16 07:43:00,36.3,26.8,29.84,ENE,67,0.0,0.0,68,0.00,,,0.00,WUHU21623XXSP,2013-02-16 13:43:00,
2013-02-16 07:48:00,36.3,26.8,29.83,North,0,0.0,0.0,68,0.00,,,0.00,WUHU21623XXSP,2013-02-16 13:48:00,
2013-02-16 07:53:00,36.5,27.0,29.84,ENE,67,0.0,2.7,68,0.00,,,0.00,WUHU21623XXSP,2013-02-16 13:53:00,
2013-02-16 07:58:00,36.5,27.0,29.84,East,90,0.0,2.7,68,0.00,,,0.00,WUHU21623XXSP,2013-02-16 13:58:00,
2013-02-16 08:03:00,36.7,27.2,29.84,ENE,67,0.0,0.0,68,0.00,,,0.00,WUHU21623XXSP,2013-02-16 14:03:00,
2013-02-16 08:08:00,36.5,26.7,29.85,ENE,67,0.0,0.0,67,0.00,,,0.00,WUHU21623XXSP,2013-02-16 14:08:00,
2013-02-16 08:13:00,36.7,26.8,29.85,NNE,22,0.0,7.4,67,0.00,,,0.00,WUHU21623XXSP,2013-02-16 14:13:00,
2013-02-16 08:18:00,36.9,27.0,29.85,ENE,67,11.9,11.9,67,0.00,,,0.00,WUHU21623XXSP,2013-02-16 14:18:00,
2013-02-16 08:23:00,36.9,26.3,29.85,NE,45,0.0,11.9,65,0.00,,,0.00,WUHU21623XXSP,2013-02-16 14:23:00,
2013-02-16 08:28:00,37.0,26.8,29.85,East,90,7.4,7.4,66,0.00,,,0.00,WUHU21623XXSP,2013-02-16 14:28:00,
2013-02-16 08:33:00,37.2,27.0,29.85,NNW,337,0.0,7.4,66,0.00,,,0.00,WUHU21623XXSP,2013-02-16 14:33:00,
2013-02-16 08:38:00,37.6,27.3,29.85,SSW,202,0.0,0.0,66,0.00,,,0.00,WUHU21623XXSP,2013-02-16 14:38:00,
2013-02-16 08:43:00,37.9,27.6,29.85,NW,315,5.6,5.6,66,0.00,,,0.00,WUHU21623XXSP,2013-02-16 14:43:00,
2013-02-16 08:48:00,38.5,27.1,29.85,ESE,112,0.0,5.6,63,0.00,,,0.00,WUHU21623XXSP,2013-02-16 14:48:00,
2013-02-16 08:53:00,39.0,27.2,29.85,ENE,67,0.0,0.0,62,0.00,,,0.00,WUHU21623XXSP,2013-02-16 14:53:00,
2013-02-16 08:58:00,39.4,27.5,29.85,SW,225,0.0,0.0,62,0.00,,,0.00,WUHU21623XXSP,2013-02-16 14:58:00,
2013-02-16 09:03:00,40.1,27.4,29.86,NNE,22,0.0,1.8,60,0.00,,,0.00,WUHU21623XXSP,2013-02-16 15:03:00,
2013-02-16 09:08:00,40.3,27.2,29.86,WSW,247,0.0,1.8,59,0.00,,,0.00,WUHU21623XXSP,2013-02-16 15:08:00,
2013-02-16 09:13:00,40.8,27.2,29.86,NW,315,3.4,3.8,58,0.00,,,0.00,WUHU21623XXSP,2013-02-16 15:13:00,
2013-02-16 09:18:00,40.8,26.8,29.86,NW,315,0.0,3.8,57,0.00,,,0.00,WUHU21623XXSP,2013-02-16 15:18:00,
2013-02-16 09:23:00,40.8,25.9,29.86,NW,315,0.0,1.1,55,0.00,,,0.00,WUHU21623XXSP,2013-02-16 15:23:00,
2013-02-16 09:28:00,40.6,26.2,29.86,East,90,0.0,0.0,56,0.00,,,0.00,WUHU21623XXSP,2013-02-16 15:28:00,
2013-02-16 09:33:00,41.0,26.1,29.86,NNE,22,0.0,0.0,55,0.00,,,0.00,WUHU21623XXSP,2013-02-16 15:33:00,
2013-02-16 09:38:00,41.5,27.0,29.86,NNW,337,0.0,0.0,56,0.00,,,0.00,WUHU21623XXSP,2013-02-16 15:38:00,
2013-02-16 09:43:00,41.7,26.3,29.86,North,0,0.0,0.0,54,0.00,,,0.00,WUHU21623XXSP,2013-02-16 15:43:00,
2013-02-16 09:48:00,41.7,25.8,29.86,SW,225,0.0,0.0,53,0.00,,,0.00,WUHU21623XXSP,2013-02-16 15:48:00,
2013-02-16 09:53:00,42.1,26.2,29.86,West,270,10.5,10.5,53,0.00,,,0.00,WUHU21623XXSP,2013-02-16 15:53:00,
2013-02-16 09:58:00,41.9,25.0,29.86,SW,225,0.0,10.5,51,0.00,,,0.00,WUHU21623XXSP,2013-02-16 15:58:00,
2013-02-16 10:03:00,42.1,26.2,29.86,ENE,67,0.0,7.2,53,0.00,,,0.00,WUHU21623XXSP,2013-02-16 16:03:00,
2013-02-16 10:08:00,42.4,26.0,29.86,South,180,0.0,7.2,52,0.00,,,0.00,WUHU21623XXSP,2013-02-16 16:08:00,
2013-02-16 10:13:00,42.6,25.7,29.87,ESE,112,0.0,5.8,51,0.00,,,0.00,WUHU21623XXSP,2013-02-16 16:13:00,
2013-02-16 10:18:00,43.0,25.6,29.86,ENE,67,2.5,5.8,50,0.00,,,0.00,WUHU21623XXSP,2013-02-16 16:18:00,
2013-02-16 10:23:00,42.6,24.2,29.86,East,90,4.7,4.7,48,0.00,,,0.00,WUHU21623XXSP,2013-02-16 16:23:00,
2013-02-16 10:28:00,42.6,24.7,29.86,East,90,4.9,4.9,49,0.00,,,0.00,WUHU21623XXSP,2013-02-16 16:28:00,
2013-02-16 10:33:00,43.0,25.6,29.87,ENE,67,6.0,6.0,50,0.00,,,0.00,WUHU21623XXSP,2013-02-16 16:33:00,
2013-02-16 10:38:00,42.6,24.7,29.87,NW,315,0.0,7.4,49,0.00,,,0.00,WUHU21623XXSP,2013-02-16 16:38:00,
2013-02-16 10:43:00,41.9,24.6,29.87,NE,45,0.0,7.4,50,0.00,,,0.00,WUHU21623XXSP,2013-02-16 16:43:00,
2013-02-16 10:48:00,41.2,23.9,29.87,NNW,337,5.8,5.8,50,0.00,,,0.00,WUHU21623XXSP,2013-02-16 16:48:00,
2013-02-16 10:53:00,40.8,23.5,29.87,ENE,67,0.0,5.8,50,0.00,,,0.00,WUHU21623XXSP,2013-02-16 16:53:00,
2013-02-16 10:58:00,41.2,23.9,29.87,NW,315,14.1,14.1,50,0.00,,,0.00,WUHU21623XXSP,2013-02-16 16:58:00,
2013-02-16 11:03:00,43.0,25.1,29.86,SW,225,0.0,14.1,49,0.00,,,0.00,WUHU21623XXSP,2013-02-16 17:03:00,
2013-02-16 11:08:00,43.2,24.2,29.87,NE,45,0.0,4.7,47,0.00,,,0.00,WUHU21623XXSP,2013-02-16 17:08:00,
2013-02-16 11:13:00,44.1,25.6,29.87,SSW,202,6.5,6.5,48,0.00,,,0.00,WUHU21623XXSP,2013-02-16 17:13:00,
2013-02-16 11:18:00,44.1,25.1,29.86,SE,135,0.0,6.5,47,0.00,,,0.00,WUHU21623XXSP,2013-02-16 17:18:00,
2013-02-16 11:23:00,44.6,25.0,29.87,WSW,247,0.0,5.6,46,0.00,,,0.00,WUHU21623XXSP,2013-02-16 17:23:00,
2013-02-16 11:28:00,44.4,24.3,29.86,NNE,22,0.0,0.0,45,0.00,,,0.00,WUHU21623XXSP,2013-02-16 17:28:00,
2013-02-16 11:33:00,43.9,24.3,29.86,SE,135,0.0,10.1,46,0.00,,,0.00,WUHU21623XXSP,2013-02-16 17:33:00,
2013-02-16 11:38:00,44.4,24.8,29.86,NE,45,7.4,10.1,46,0.00,,,0.00,WUHU21623XXSP,2013-02-16 17:38:00,
2013-02-16 11:43:00,45.1,25.4,29.85,WSW,247,0.0,7.4,46,0.00,,,0.00,WUHU21623XXSP,2013-02-16 17:43:00,
2013-02-16 11:48:00,45.1,24.3,29.85,NW,315,0.0,0.0,44,0.00,,,0.00,WUHU21623XXSP,2013-02-16 17:48:00,
2013-02-16 11:53:00,46.0,26.3,29.85,WSW,247,3.8,3.8,46,0.00,,,0.00,WUHU21623XXSP,2013-02-16 17:53:00,
2013-02-16 11:58:00,46.6,26.3,29.85,NNW,337,0.0,5.1,45,0.00,,,0.00,WUHU21623XXSP,2013-02-16 17:58:00,
2013-02-16 12:03:00,45.1,23.8,29.85,East,90,1.1,5.6,43,0.00,,,0.00,WUHU21623XXSP,2013-02-16 18:03:00,
2013-02-16 12:08:00,45.1,24.3,29.84,North,0,0.0,5.6,44,0.00,,,0.00,WUHU21623XXSP,2013-02-16 18:08:00,
2013-02-16 12:13:00,45.5,25.3,29.84,SW,225,5.1,5.1,45,0.00,,,0.00,WUHU21623XXSP,2013-02-16 18:13:00,
2013-02-16 12:18:00,45.7,24.9,29.84,NNW,337,3.4,5.1,44,0.00,,,0.00,WUHU21623XXSP,2013-02-16 18:18:00,
2013-02-16 12:23:00,46.0,25.2,29.84,NNW,337,0.0,3.4,44,0.00,,,0.00,WUHU21623XXSP,2013-02-16 18:23:00,
2013-02-16 12:28:00,46.2,25.3,29.84,NW,315,8.1,8.1,44,0.00,,,0.00,WUHU21623XXSP,2013-02-16 18:28:00,
2013-02-16 12:33:00,46.2,24.8,29.84,WNW,292,6.0,8.1,43,0.00,,,0.00,WUHU21623XXSP,2013-02-16 18:33:00,
2013-02-16 12:38:00,45.5,24.1,29.84,WSW,247,0.0,12.8,43,0.00,,,0.00,WUHU21623XXSP,2013-02-16 18:38:00,
2013-02-16 12:43:00,45.0,23.7,29.83,NNW,337,4.3,12.8,43,0.00,,,0.00,WUHU21623XXSP,2013-02-16 18:43:00,
2013-02-16 12:48:00,44.4,23.7,29.84,NE,45,0.0,4.3,44,0.00,,,0.00,WUHU21623XXSP,2013-02-16 18:48:00,
2013-02-16 12:53:00,43.9,23.2,29.83,SW,225,8.1,8.1,44,0.00,,,0.00,WUHU21623XXSP,2013-02-16 18:53:00,
2013-02-16 12:58:00,44.1,22.9,29.83,NNW,337,6.0,11.0,43,0.00,,,0.00,WUHU21623XXSP,2013-02-16 18:58:00,
2013-02-16 13:03:00,43.7,22.5,29.83,WNW,292,0.0,11.0,43,0.00,,,0.00,WUHU21623XXSP,2013-02-16 19:03:00,
2013-02-16 13:08:00,44.2,24.1,29.83,WSW,247,2.5,6.0,45,0.00,,,0.00,WUHU21623XXSP,2013-02-16 19:08:00,
2013-02-16 13:13:00,44.8,23.5,29.82,SW,225,5.1,5.1,43,0.00,,,0.00,WUHU21623XXSP,2013-02-16 19:13:00,
2013-02-16 13:18:00,45.3,24.0,29.82,NE,45,0.0,11.2,43,0.00,,,0.00,WUHU21623XXSP,2013-02-16 19:18:00,
2013-02-16 13:23:00,45.7,24.3,29.82,NW,315,0.0,11.2,43,0.00,,,0.00,WUHU21623XXSP,2013-02-16 19:23:00,
2013-02-16 13:28:00,46.8,25.3,29.82,NW,315,5.6,5.6,43,0.00,,,0.00,WUHU21623XXSP,2013-02-16 19:28:00,
2013-02-16 13:33:00,47.3,26.3,29.82,NW,315,2.9,5.6,44,0.00,,,0.00,WUHU21623XXSP,2013-02-16 19:33:00,
2013-02-16 13:38:00,47.1,25.6,29.82,ENE,67,7.2,7.2,43,0.00,,,0.00,WUHU21623XXSP,2013-02-16 19:38:00,
2013-02-16 13:43:00,45.3,22.8,29.82,ENE,67,3.4,9.4,41,0.00,,,0.00,WUHU21623XXSP,2013-02-16 19:43:00,
2013-02-16 13:48:00,44.2,23.0,29.82,West,270,0.0,9.4,43,0.00,,,0.00,WUHU21623XXSP,2013-02-16 19:48:00,
2013-02-16 13:53:00,43.9,22.7,29.82,NNW,337,0.0,5.6,43,0.00,,,0.00,WUHU21623XXSP,2013-02-16 19:53:00,
2013-02-16 13:58:00,44.2,22.4,29.81,NW,315,6.0,6.0,42,0.00,,,0.00,WUHU21623XXSP,2013-02-16 19:58:00,
2013-02-16 14:03:00,44.8,23.5,29.81,West,270,0.0,6.0,43,0.00,,,0.00,WUHU21623XXSP,2013-02-16 20:03:00,
2013-02-16 14:08:00,45.0,23.7,29.81,SW,225,6.0,6.0,43,0.00,,,0.00,WUHU21623XXSP,2013-02-16 20:08:00,
2013-02-16 14:13:00,44.6,23.3,29.82,WSW,247,0.0,6.0,43,0.00,,,0.00,WUHU21623XXSP,2013-02-16 20:13:00,
2013-02-16 14:18:00,44.4,23.1,29.83,WNW,292,0.0,0.0,43,0.00,,,0.00,WUHU21623XXSP,2013-02-16 20:18:00,
2013-02-16 14:23:00,43.7,23.1,29.83,SW,225,4.9,4.9,44,0.00,,,0.00,WUHU21623XXSP,2013-02-16 20:23:00,
2013-02-16 14:28:00,43.3,22.7,29.82,NNW,337,0.0,4.9,44,0.00,,,0.00,WUHU21623XXSP,2013-02-16 20:28:00,
2013-02-16 14:33:00,43.3,22.7,29.82,NNW,337,0.0,1.3,44,0.00,,,0.00,WUHU21623XXSP,2013-02-16 20:33:00,
2013-02-16 14:38:00,43.3,22.7,29.82,ESE,112,2.0,2.0,44,0.00,,,0.00,WUHU21623XXSP,2013-02-16 20:38:00,
2013-02-16 14:43:00,43.2,22.6,29.83,NW,315,0.0,2.0,44,0.00,,,0.00,WUHU21623XXSP,2013-02-16 20:43:00,
2013-02-16 14:48:00,43.3,22.7,29.83,NW,315,0.0,2.0,44,0.00,,,0.00,WUHU21623XXSP,2013-02-16 20:48:00,
2013-02-16 14:53:00,43.5,23.4,29.84,NW,315,7.2,7.2,45,0.00,,,0.00,WUHU21623XXSP,2013-02-16 20:53:00,
2013-02-16 14:58:00,43.9,23.8,29.84,WSW,247,0.0,7.2,45,0.00,,,0.00,WUHU21623XXSP,2013-02-16 20:58:00,
2013-02-16 15:03:00,44.2,23.5,29.83,West,270,5.4,5.4,44,0.00,,,0.00,WUHU21623XXSP,2013-02-16 21:03:00,
2013-02-16 15:08:00,44.4,23.7,29.83,NE,45,0.0,5.4,44,0.00,,,0.00,WUHU21623XXSP,2013-02-16 21:08:00,
2013-02-16 15:13:00,44.4,23.7,29.84,SW,225,10.5,10.5,44,0.00,,,0.00,WUHU21623XXSP,2013-02-16 21:13:00,
2013-02-16 15:18:00,44.2,23.5,29.84,West,270,0.0,10.5,44,0.00,,,0.00,WUHU21623XXSP,2013-02-16 21:18:00,
2013-02-16 15:23:00,44.4,23.7,29.84,West,270,0.0,0.0,44,0.00,,,0.00,WUHU21623XXSP,2013-02-16 21:23:00,
2013-02-16 15:28:00,44.2,23.5,29.84,NE,45,2.9,6.7,44,0.00,,,0.00,WUHU21623XXSP,2013-02-16 21:28:00,
2013-02-16 15:33:00,43.9,22.7,29.84,East,90,6.7,6.7,43,0.00,,,0.00,WUHU21623XXSP,2013-02-16 21:33:00,
2013-02-16 15:38:00,44.2,23.5,29.84,SW,225,5.6,6.7,44,0.00,,,0.00,WUHU21623XXSP,2013-02-16 21:38:00,
2013-02-16 15:43:00,44.2,23.0,29.84,SW,225,0.0,5.6,43,0.00,,,0.00,WUHU21623XXSP,2013-02-16 21:43:00,
2013-02-16 15:48:00,44.2,23.0,29.84,ESE,112,0.0,5.4,43,0.00,,,0.00,WUHU21623XXSP,2013-02-16 21:48:00,
2013-02-16 15:53:00,43.9,22.7,29.84,SW,225,0.0,0.0,43,0.00,,,0.00,WUHU21623XXSP,2013-02-16 21:53:00,
2013-02-16 15:58:00,43.2,22.6,29.84,North,0,0.0,0.0,44,0.00,,,0.00,WUHU21623XXSP,2013-02-16 21:58:00,
2013-02-16 16:03:00,43.0,23.0,29.84,NNW,337,6.7,8.1,45,0.00,,,0.00,WUHU21623XXSP,2013-02-16 22:03:00,
2013-02-16 16:08:00,43.2,23.2,29.84,WSW,247,0.0,8.1,45,0.00,,,0.00,WUHU21623XXSP,2013-02-16 22:08:00,
2013-02-16 16:13:00,43.0,22.4,29.84,SW,225,10.5,10.5,44,0.00,,,0.00,WUHU21623XXSP,2013-02-16 22:13:00,
2013-02-16 16:18:00,42.6,22.6,29.84,SW,225,10.1,10.5,45,0.00,,,0.00,WUHU21623XXSP,2013-02-16 22:18:00,
2013-02-16 16:23:00,42.4,22.4,29.84,SSW,202,0.0,10.1,45,0.00,,,0.00,WUHU21623XXSP,2013-02-16 22:23:00,
2013-02-16 16:28:00,41.9,22.5,29.83,SSE,157,0.0,6.3,46,0.00,,,0.00,WUHU21623XXSP,2013-02-16 22:28:00,
2013-02-16 16:33:00,41.5,22.7,29.84,NNW,337,5.1,5.1,47,0.00,,,0.00,WUHU21623XXSP,2013-02-16 22:33:00,
2013-02-16 16:38:00,41.4,23.1,29.84,NNW,337,3.4,5.1,48,0.00,,,0.00,WUHU21623XXSP,2013-02-16 22:38:00,
2013-02-16 16:43:00,41.0,23.2,29.84,WSW,247,0.0,3.4,49,0.00,,,0.00,WUHU21623XXSP,2013-02-16 22:43:00,
2013-02-16 16:48:00,41.0,23.2,29.84,ENE,67,1.8,1.8,49,0.00,,,0.00,WUHU21623XXSP,2013-02-16 22:48:00,
2013-02-16 16:53:00,40.6,22.9,29.84,NNW,337,0.0,10.1,49,0.00,,,0.00,WUHU21623XXSP,2013-02-16 22:53:00,
2013-02-16 16:58:00,40.5,23.3,29.84,WSW,247,4.7,10.1,50,0.00,,,0.00,WUHU21623XXSP,2013-02-16 22:58:00,
2013-02-16 17:03:00,40.1,22.9,29.85,WSW,247,0.0,4.7,50,0.00,,,0.00,WUHU21623XXSP,2013-02-16 23:03:00,
2013-02-16 17:08:00,39.9,22.7,29.85,NNW,337,6.7,6.7,50,0.00,,,0.00,WUHU21623XXSP,2013-02-16 23:08:00,
2013-02-16 17:13:00,39.9,22.7,29.85,NNW,337,2.5,6.7,50,0.00,,,0.00,WUHU21623XXSP,2013-02-16 23:13:00,
2013-02-16 17:18:00,39.9,22.7,29.86,WNW,292,3.8,4.7,50,0.00,,,0.00,WUHU21623XXSP,2013-02-16 23:18:00,
2013-02-16 17:23:00,39.6,23.9,29.86,East,90,0.0,4.7,53,0.00,,,0.00,WUHU21623XXSP,2013-02-16 23:23:00,
2013-02-16 17:28:00,39.4,24.1,29.86,WNW,292,0.0,3.8,54,0.00,,,0.00,WUHU21623XXSP,2013-02-16 23:28:00,
2013-02-16 17:33:00,38.8,24.0,29.86,NW,315,0.0,0.0,55,0.00,,,0.00,WUHU21623XXSP,2013-02-16 23:33:00,
2013-02-16 17:38:00,38.5,24.2,29.86,East,90,0.0,0.0,56,0.00,,,0.00,WUHU21623XXSP,2013-02-16 23:38:00,
2013-02-16 17:43:00,38.3,24.0,29.86,NW,315,0.0,0.0,56,0.00,,,0.00,WUHU21623XXSP,2013-02-16 23:43:00,
2013-02-16 17:48:00,38.1,23.8,29.86,NW,315,0.0,0.0,56,0.00,,,0.00,WUHU21623XXSP,2013-02-16 23:48:00,
2013-02-16 17:53:00,37.9,24.1,29.87,NW,315,0.0,0.0,57,0.00,,,0.00,WUHU21623XXSP,2013-02-16 23:53:00,
2013-02-16 17:58:00,37.8,24.0,29.87,NW,315,0.0,0.0,57,0.00,,,0.00,WUHU21623XXSP,2013-02-16 23:58:00,
2013-02-16 18:03:00,37.4,24.0,29.87,NW,315,0.0,0.0,58,0.00,,,0.00,WUHU21623XXSP,2013-02-17 00:03:00,
2013-02-16 18:09:00,37.2,23.8,29.87,WSW,247,0.0,0.0,58,0.00,,,0.00,WUHU21623XXSP,2013-02-17 00:09:00,
2013-02-16 18:14:00,37.2,23.8,29.88,NW,315,0.0,0.0,58,0.00,,,0.00,WUHU21623XXSP,2013-02-17 00:14:00,
2013-02-16 18:19:00,37.2,23.8,29.88,ENE,67,0.0,0.0,58,0.00,,,0.00,WUHU21623XXSP,2013-02-17 00:19:00,
2013-02-16 18:24:00,37.2,23.8,29.88,North,0,0.0,1.6,58,0.00,,,0.00,WUHU21623XXSP,2013-02-17 00:24:00,
2013-02-16 18:29:00,37.4,24.0,29.89,SSE,157,0.0,1.6,58,0.00,,,0.00,WUHU21623XXSP,2013-02-17 00:29:00,
2013-02-16 18:34:00,37.6,24.2,29.89,ENE,67,0.0,0.0,58,0.00,,,0.00,WUHU21623XXSP,2013-02-17 00:34:00,
2013-02-16 18:39:00,37.4,24.0,29.90,NNW,337,0.0,2.0,58,0.00,,,0.00,WUHU21623XXSP,2013-02-17 00:39:00,
2013-02-16 18:44:00,37.2,24.2,29.90,SSW,202,5.4,5.4,59,0.00,,,0.00,WUHU21623XXSP,2013-02-17 00:44:00,
2013-02-16 18:49:00,37.2,24.2,29.89,ENE,67,0.0,5.4,59,0.00,,,0.00,WUHU21623XXSP,2013-02-17 00:49:00,
2013-02-16 18:54:00,37.0,24.0,29.90,WSW,247,0.0,0.0,59,0.00,,,0.00,WUHU21623XXSP,2013-02-17 00:54:00,
2013-02-16 18:59:00,37.0,24.0,29.90,NW,315,0.0,0.0,59,0.00,,,0.00,WUHU21623XXSP,2013-02-17 00:59:00,
2013-02-16 19:04:00,36.7,23.8,29.90,NW,315,0.0,6.0,59,0.00,,,0.00,WUHU21623XXSP,2013-02-17 01:04:00,
2013-02-16 19:09:00,36.5,23.6,29.90,NNW,337,0.0,6.0,59,0.00,,,0.00,WUHU21623XXSP,2013-02-17 01:09:00,
2013-02-16 19:14:00,36.3,23.4,29.91,NNW,337,0.0,0.0,59,0.00,,,0.00,WUHU21623XXSP,2013-02-17 01:14:00,
2013-02-16 19:19:00,36.3,23.4,29.91,North,0,0.0,0.0,59,0.00,,,0.00,WUHU21623XXSP,2013-02-17 01:19:00,
2013-02-16 19:24:00,36.1,23.6,29.91,NNW,337,0.0,0.0,60,0.00,,,0.00,WUHU21623XXSP,2013-02-17 01:24:00,
2013-02-16 19:29:00,36.0,23.5,29.91,NW,315,0.0,0.0,60,0.00,,,0.00,WUHU21623XXSP,2013-02-17 01:29:00,
2013-02-16 19:34:00,35.8,23.7,29.91,NW,315,0.0,0.0,61,0.00,,,0.00,WUHU21623XXSP,2013-02-17 01:34:00,
2013-02-16 19:39:00,35.4,23.3,29.91,NNE,22,0.0,0.0,61,0.00,,,0.00,WUHU21623XXSP,2013-02-17 01:39:00,
2013-02-16 19:44:00,35.2,23.5,29.91,NNE,22,0.0,0.0,62,0.00,,,0.00,WUHU21623XXSP,2013-02-17 01:44:00,
2013-02-16 19:49:00,35.2,23.5,29.92,NE,45,0.0,0.0,62,0.00,,,0.00,WUHU21623XXSP,2013-02-17 01:49:00,
2013-02-16 19:54:00,35.2,23.2,29.92,NW,315,0.0,0.0,61,0.00,,,0.00,WUHU21623XXSP,2013-02-17 01:54:00,
2013-02-16 19:59:00,35.2,23.5,29.92,NW,315,0.0,0.0,62,0.00,,,0.00,WUHU21623XXSP,2013-02-17 01:59:00,
2013-02-16 20:04:00,35.2,23.2,29.92,ESE,112,0.0,0.0,61,0.00,,,0.00,WUHU21623XXSP,2013-02-17 02:04:00,
2013-02-16 20:09:00,35.2,23.2,29.93,NW,315,0.0,0.0,61,0.00,,,0.00,WUHU21623XXSP,2013-02-17 02:09:00,
2013-02-16 20:14:00,35.2,23.2,29.93,NW,315,0.0,0.0,61,0.00,,,0.00,WUHU21623XXSP,2013-02-17 02:14:00,
2013-02-16 20:19:00,35.1,23.1,29.93,West,270,0.0,0.0,61,0.00,,,0.00,WUHU21623XXSP,2013-02-17 02:19:00,
2013-02-16 20:24:00,34.7,23.1,29.93,West,270,0.0,0.0,62,0.00,,,0.00,WUHU21623XXSP,2013-02-17 02:24:00,
2013-02-16 20:29:00,34.3,23.1,29.93,West,270,0.0,0.0,63,0.00,,,0.00,WUHU21623XXSP,2013-02-17 02:29:00,
2013-02-16 20:34:00,34.3,23.1,29.93,ENE,67,0.0,0.0,63,0.00,,,0.00,WUHU21623XXSP,2013-02-17 02:34:00,
2013-02-16 20:39:00,34.3,23.1,29.93,WNW,292,0.0,0.0,63,0.00,,,0.00,WUHU21623XXSP,2013-02-17 02:39:00,
2013-02-16 20:44:00,34.3,23.1,29.93,WNW,292,0.0,0.0,63,0.00,,,0.00,WUHU21623XXSP,2013-02-17 02:44:00,
2013-02-16 20:49:00,34.3,23.1,29.93,WNW,292,0.0,0.0,63,0.00,,,0.00,WUHU21623XXSP,2013-02-17 02:49:00,
2013-02-16 20:54:00,34.3,23.1,29.93,SSW,202,0.0,0.0,63,0.00,,,0.00,WUHU21623XXSP,2013-02-17 02:54:00,
2013-02-16 20:59:00,34.3,23.1,29.93,SSW,202,0.0,0.0,63,0.00,,,0.00,WUHU21623XXSP,2013-02-17 02:59:00,
2013-02-16 21:04:00,34.0,22.8,29.94,SSW,202,0.0,0.0,63,0.00,,,0.00,WUHU21623XXSP,2013-02-17 03:04:00,
2013-02-16 21:09:00,33.8,23.0,29.94,SSW,202,0.0,0.0,64,0.00,,,0.00,WUHU21623XXSP,2013-02-17 03:09:00,
2013-02-16 21:14:00,33.6,22.8,29.94,WSW,247,0.0,0.0,64,0.00,,,0.00,WUHU21623XXSP,2013-02-17 03:14:00,
2013-02-16 21:19:00,33.6,22.8,29.94,WSW,247,0.0,0.0,64,0.00,,,0.00,WUHU21623XXSP,2013-02-17 03:19:00,
2013-02-16 21:24:00,33.4,22.6,29.94,WSW,247,0.0,0.0,64,0.00,,,0.00,WUHU21623XXSP,2013-02-17 03:24:00,
2013-02-16 21:29:00,33.3,22.5,29.94,WSW,247,0.0,0.0,64,0.00,,,0.00,WUHU21623XXSP,2013-02-17 03:29:00,
2013-02-16 21:34:00,32.9,22.5,29.95,WSW,247,0.0,0.0,65,0.00,,,0.00,WUHU21623XXSP,2013-02-17 03:34:00,
2013-02-16 21:39:00,33.1,22.7,29.95,West,270,0.0,0.0,65,0.00,,,0.00,WUHU21623XXSP,2013-02-17 03:39:00,
2013-02-16 21:44:00,33.1,22.7,29.95,West,270,0.0,0.0,65,0.00,,,0.00,WUHU21623XXSP,2013-02-17 03:44:00,
2013-02-16 21:49:00,32.9,22.9,29.95,West,270,0.0,0.0,66,0.00,,,0.00,WUHU21623XXSP,2013-02-17 03:49:00,
2013-02-16 21:54:00,32.7,22.7,29.95,West,270,0.0,0.0,66,0.00,,,0.00,WUHU21623XXSP,2013-02-17 03:54:00,
2013-02-16 21:59:00,32.5,22.5,29.95,WSW,247,0.0,0.0,66,0.00,,,0.00,WUHU21623XXSP,2013-02-17 03:59:00,
2013-02-16 22:04:00,32.4,22.4,29.95,WSW,247,0.0,0.0,66,0.00,,,0.00,WUHU21623XXSP,2013-02-17 04:04:00,
2013-02-16 22:09:00,32.4,22.4,29.95,WNW,292,0.0,0.0,66,0.00,,,0.00,WUHU21623XXSP,2013-02-17 04:09:00,
2013-02-16 22:14:00,32.2,22.5,29.95,WNW,292,0.0,0.0,67,0.00,,,0.00,WUHU21623XXSP,2013-02-17 04:14:00,
2013-02-16 22:19:00,31.8,22.2,29.95,WNW,292,0.0,0.0,67,0.00,,,0.00,WUHU21623XXSP,2013-02-17 04:19:00,
2013-02-16 22:24:00,31.8,22.2,29.95,WNW,292,0.0,0.0,67,0.00,,,0.00,WUHU21623XXSP,2013-02-17 04:24:00,
2013-02-16 22:29:00,31.5,21.9,29.94,WNW,292,0.0,0.0,67,0.00,,,0.00,WUHU21623XXSP,2013-02-17 04:29:00,
2013-02-16 22:34:00,31.3,22.0,29.95,WNW,292,0.0,0.0,68,0.00,,,0.00,WUHU21623XXSP,2013-02-17 04:34:00,
2013-02-16 22:39:00,30.9,21.6,29.94,WNW,292,0.0,0.0,68,0.00,,,0.00,WUHU21623XXSP,2013-02-17 04:39:00,
2013-02-16 22:44:00,30.7,21.8,29.94,WNW,292,0.0,0.0,69,0.00,,,0.00,WUHU21623XXSP,2013-02-17 04:44:00,
2013-02-16 22:49:00,30.7,21.8,29.95,WNW,292,0.0,0.0,69,0.00,,,0.00,WUHU21623XXSP,2013-02-17 04:49:00,
2013-02-16 22:54:00,30.7,21.8,29.95,WNW,292,0.0,0.0,69,0.00,,,0.00,WUHU21623XXSP,2013-02-17 04:54:00,
2013-02-16 22:59:00,30.6,22.0,29.95,WNW,292,0.0,0.0,70,0.00,,,0.00,WUHU21623XXSP,2013-02-17 04:59:00,
2013-02-16 23:04:00,30.4,21.8,29.95,WNW,292,0.0,0.0,70,0.00,,,0.00,WUHU21623XXSP,2013-02-17 05:04:00,
2013-02-16 23:09:00,30.0,21.8,29.95,WNW,292,0.0,0.0,71,0.00,,,0.00,WUHU21623XXSP,2013-02-17 05:09:00,
2013-02-16 23:14:00,30.0,21.8,29.95,WNW,292,0.0,0.0,71,0.00,,,0.00,WUHU21623XXSP,2013-02-17 05:14:00,
2013-02-16 23:19:00,30.0,21.8,29.95,WNW,292,0.0,0.0,71,0.00,,,0.00,WUHU21623XXSP,2013-02-17 05:19:00,
2013-02-16 23:24:00,30.0,21.8,29.95,WNW,292,0.0,0.0,71,0.00,,,0.00,WUHU21623XXSP,2013-02-17 05:24:00,
2013-02-16 23:29:00,30.0,21.8,29.95,WNW,292,0.0,0.0,71,0.00,,,0.00,WUHU21623XXSP,2013-02-17 05:29:00,
2013-02-16 23:34:00,29.8,21.6,29.95,WNW,292,0.0,0.0,71,0.00,,,0.00,WUHU21623XXSP,2013-02-17 05:34:00,
2013-02-16 23:39:00,29.5,21.6,29.95,WNW,292,0.0,0.0,72,0.00,,,0.00,WUHU21623XXSP,2013-02-17 05:39:00,
2013-02-16 23:44:00,29.3,21.4,29.95,WNW,292,0.0,0.0,72,0.00,,,0.00,WUHU21623XXSP,2013-02-17 05:44:00,
2013-02-16 23:49:00,29.3,21.4,29.96,NNW,337,0.0,0.0,72,0.00,,,0.00,WUHU21623XXSP,2013-02-17 05:49:00,
2013-02-16 23:54:00,29.7,21.5,29.96,NNW,337,0.0,0.0,71,0.00,,,0.00,WUHU21623XXSP,2013-02-17 05:54:00,
2013-02-16 23:59:00,29.8,21.6,29.96,NNW,337,0.0,0.0,71,0.00,,,0.00,WUHU21623XXSP,2013-02-17 05:59:00,